createdAt,value
2022-12-03T00:02:25.967Z,41.10
2022-12-03T00:04:54.322Z,43.23
2022-12-03T00:07:22.654Z,43.10
2022-12-03T00:09:52.208Z,40.70
2022-12-03T00:12:20.284Z,40.80
2022-12-03T00:14:48.391Z,43.73
2022-12-03T00:17:16.493Z,38.83
2022-12-03T00:19:44.537Z,46.23
2022-12-03T00:22:13.004Z,42.93
2022-12-03T00:24:41.171Z,42.57
2022-12-03T00:27:10.672Z,43.37
2022-12-03T00:29:38.724Z,42.10
2022-12-03T00:32:07.121Z,41.30
2022-12-03T00:34:35.238Z,39.67
2022-12-03T00:37:03.529Z,38.73
2022-12-03T00:39:31.593Z,39.73
2022-12-03T00:41:59.746Z,39.00
2022-12-03T00:44:29.268Z,39.20
2022-12-03T00:46:57.376Z,45.70
2022-12-03T00:49:25.494Z,40.53
2022-12-03T00:51:53.798Z,38.43
2022-12-03T00:54:24.538Z,42.93
2022-12-03T00:56:56.509Z,40.40
2022-12-03T00:59:24.547Z,44.57
2022-12-03T01:01:54.091Z,39.77
2022-12-03T01:04:22.452Z,41.97
2022-12-03T01:06:50.558Z,44.67
2022-12-03T01:09:18.634Z,41.37
2022-12-03T01:11:46.782Z,39.07
2022-12-03T01:14:15.623Z,43.77
2022-12-03T01:16:43.838Z,39.30
2022-12-03T01:19:15.851Z,46.60
2022-12-03T01:21:44.446Z,43.70
2022-12-03T01:24:12.742Z,47.40
2022-12-03T01:26:41.063Z,40.43
2022-12-03T01:29:09.163Z,46.00
2022-12-03T01:31:54.924Z,48.10
2022-12-03T01:34:24.352Z,43.60
2022-12-03T01:36:52.762Z,43.80
2022-12-03T01:39:21.209Z,45.57
2022-12-03T01:41:49.463Z,46.23
2022-12-03T01:44:19.557Z,40.87
2022-12-03T01:46:47.741Z,45.40
2022-12-03T01:49:17.683Z,42.60
2022-12-03T01:51:47.379Z,41.80
2022-12-03T01:54:17.491Z,43.07
2022-12-03T01:56:45.873Z,44.30
2022-12-03T01:59:16.416Z,44.87
2022-12-03T02:01:44.538Z,48.57
2022-12-03T02:04:14.254Z,46.03
2022-12-03T02:06:42.656Z,43.37
2022-12-03T02:09:12.888Z,42.47
2022-12-03T02:11:42.240Z,40.10
2022-12-03T02:14:12.027Z,41.80
2022-12-03T02:16:40.457Z,43.33
2022-12-03T02:19:11.440Z,43.07
2022-12-03T02:21:43.659Z,46.67
2022-12-03T02:24:16.048Z,44.77
2022-12-03T02:26:45.476Z,47.03
2022-12-03T02:29:13.562Z,39.37
2022-12-03T02:31:41.691Z,38.23
2022-12-03T02:34:10.028Z,44.50
2022-12-03T02:36:38.155Z,42.43
2022-12-03T02:39:06.203Z,42.70
2022-12-03T02:41:51.626Z,44.13
2022-12-03T02:44:21.409Z,42.77
2022-12-03T02:46:49.557Z,40.03
2022-12-03T02:49:17.984Z,45.90
2022-12-03T02:51:46.019Z,41.63
2022-12-03T02:54:14.091Z,41.50
2022-12-03T02:56:42.193Z,40.20
2022-12-03T02:59:10.258Z,41.77
2022-12-03T03:01:39.769Z,41.90
2022-12-03T03:04:07.989Z,43.07
2022-12-03T03:06:36.122Z,41.77
2022-12-03T03:09:04.318Z,45.57
2022-12-03T03:11:32.404Z,37.93
2022-12-03T03:14:01.696Z,41.43
2022-12-03T03:16:29.915Z,42.10
2022-12-03T03:18:59.384Z,40.70
2022-12-03T03:21:27.469Z,44.00
2022-12-03T03:23:55.538Z,42.63
2022-12-03T03:26:23.686Z,41.47
2022-12-03T03:28:51.893Z,38.63
2022-12-03T03:31:22.149Z,41.77
2022-12-03T03:33:50.323Z,39.93
2022-12-03T03:36:19.799Z,41.30
2022-12-03T03:38:48.057Z,39.73
2022-12-03T03:41:16.372Z,40.70
2022-12-03T03:43:45.073Z,41.53
2022-12-03T03:46:13.238Z,39.53
2022-12-03T03:48:41.414Z,35.73
2022-12-03T03:51:09.862Z,40.43
2022-12-03T03:53:39.895Z,37.93
2022-12-03T03:56:08.588Z,38.07
2022-12-03T03:58:36.683Z,39.00
2022-12-03T04:01:04.877Z,40.90
2022-12-03T04:03:32.987Z,37.03
2022-12-03T04:06:01.116Z,34.70
2022-12-03T04:08:29.164Z,38.30
2022-12-03T04:11:16.103Z,40.90
2022-12-03T04:13:44.146Z,38.30
2022-12-03T04:16:12.325Z,42.17
2022-12-03T04:18:46.422Z,38.10
2022-12-03T04:21:32.881Z,38.23
2022-12-03T04:24:01.058Z,41.20
2022-12-03T04:26:48.870Z,40.73
2022-12-03T04:29:16.951Z,38.77
2022-12-03T04:32:02.494Z,39.33
2022-12-03T04:34:47.711Z,40.40
2022-12-03T04:37:15.804Z,43.40
2022-12-03T04:39:43.909Z,40.50
2022-12-03T04:42:13.398Z,38.93
2022-12-03T04:44:41.450Z,38.53
2022-12-03T04:47:10.763Z,40.57
2022-12-03T04:49:39.869Z,40.03
2022-12-03T04:52:08.044Z,41.93
2022-12-03T04:54:36.166Z,37.33
2022-12-03T04:57:04.329Z,41.63
2022-12-03T04:59:34.020Z,43.57
2022-12-03T05:02:02.098Z,41.57
2022-12-03T05:04:30.237Z,42.03
2022-12-03T05:06:58.320Z,41.97
2022-12-03T05:09:26.350Z,42.40
2022-12-03T05:11:54.452Z,46.17
2022-12-03T05:14:22.863Z,44.87
2022-12-03T05:16:52.399Z,44.63
2022-12-03T05:19:20.521Z,42.93
2022-12-03T05:21:47.629Z,45.50
2022-12-03T05:24:15.667Z,43.90
2022-12-03T05:26:43.854Z,44.00
2022-12-03T05:29:11.951Z,48.60
2022-12-03T05:31:40.104Z,47.00
2022-12-03T05:34:09.558Z,50.50
2022-12-03T05:36:37.624Z,54.10
2022-12-03T05:39:05.928Z,47.97
2022-12-03T05:41:47.844Z,46.23
2022-12-03T05:44:20.271Z,53.43
2022-12-03T05:46:49.169Z,51.17
2022-12-03T05:49:18.614Z,46.57
2022-12-03T05:51:46.819Z,49.30
2022-12-03T05:54:14.838Z,53.13
2022-12-03T05:56:42.911Z,51.40
2022-12-03T05:59:11.234Z,59.00
2022-12-03T06:01:39.422Z,55.50
2022-12-03T06:04:07.573Z,53.43
2022-12-03T06:06:37.087Z,54.00
2022-12-03T06:09:05.584Z,58.47
2022-12-03T06:11:36.996Z,56.60
2022-12-03T06:14:05.065Z,53.20
2022-12-03T06:16:33.249Z,54.53
2022-12-03T06:19:01.448Z,55.27
2022-12-03T06:21:29.784Z,54.17
2022-12-03T06:24:00.214Z,57.10
2022-12-03T06:26:28.263Z,52.47
2022-12-03T06:28:56.305Z,66.93
2022-12-03T06:31:24.792Z,58.23
2022-12-03T06:33:52.922Z,60.97
2022-12-03T06:36:23.237Z,54.83
2022-12-03T06:38:51.439Z,60.87
2022-12-03T06:41:21.104Z,53.37
2022-12-03T06:43:49.140Z,54.77
2022-12-03T06:46:17.355Z,63.30
2022-12-03T06:48:45.479Z,57.73
2022-12-03T06:51:13.608Z,57.37
2022-12-03T06:53:41.677Z,60.50
2022-12-03T06:56:09.991Z,57.17
2022-12-03T06:58:39.449Z,58.00
2022-12-03T07:01:07.586Z,60.60
2022-12-03T07:03:35.687Z,62.90
2022-12-03T07:06:03.786Z,64.13
2022-12-03T07:08:31.841Z,57.30
2022-12-03T07:10:59.993Z,58.80
2022-12-03T07:13:28.060Z,57.13
2022-12-03T07:15:57.622Z,63.27
2022-12-03T07:18:25.812Z,61.97
2022-12-03T07:20:54.029Z,58.10
2022-12-03T07:23:22.115Z,62.50
2022-12-03T07:25:50.254Z,68.93
2022-12-03T07:28:18.333Z,62.07
2022-12-03T07:30:46.526Z,61.17
2022-12-03T07:33:16.024Z,65.40
2022-12-03T07:35:44.248Z,63.93
2022-12-03T07:38:12.654Z,62.50
2022-12-03T07:40:40.815Z,70.87
2022-12-03T07:43:08.869Z,74.23
2022-12-03T07:45:36.959Z,67.63
2022-12-03T07:48:05.141Z,70.57
2022-12-03T07:50:34.640Z,70.63
2022-12-03T07:53:02.718Z,71.07
2022-12-03T07:55:30.832Z,71.53
2022-12-03T07:57:58.911Z,70.17
2022-12-03T08:00:27.248Z,68.47
2022-12-03T08:02:55.365Z,67.80
2022-12-03T08:05:23.458Z,75.67
2022-12-03T08:07:52.997Z,75.40
2022-12-03T08:10:21.146Z,66.93
2022-12-03T08:12:49.516Z,72.13
2022-12-03T08:15:18.955Z,73.63
2022-12-03T08:17:48.336Z,69.67
2022-12-03T08:20:18.443Z,65.53
2022-12-03T08:22:47.698Z,70.60
2022-12-03T08:25:20.712Z,69.83
2022-12-03T08:27:48.764Z,70.67
2022-12-03T08:30:17.425Z,67.37
2022-12-03T08:32:45.894Z,70.70
2022-12-03T08:35:14.801Z,70.30
2022-12-03T08:37:42.854Z,72.60
2022-12-03T08:40:23.946Z,73.23
2022-12-03T08:42:51.983Z,66.03
2022-12-03T08:45:32.415Z,74.37
2022-12-03T08:48:01.096Z,73.37
2022-12-03T08:50:30.533Z,70.00
2022-12-03T08:53:00.557Z,69.63
2022-12-03T08:55:36.520Z,75.67
2022-12-03T08:58:07.418Z,73.47
2022-12-03T09:00:35.597Z,77.77
2022-12-03T09:03:03.650Z,69.23
2022-12-03T09:05:33.510Z,72.10
2022-12-03T09:08:01.812Z,74.67
2022-12-03T09:10:30.124Z,74.60
2022-12-03T09:12:59.545Z,73.43
2022-12-03T09:15:28.416Z,78.70
2022-12-03T09:17:56.554Z,78.67
2022-12-03T09:20:24.623Z,78.77
2022-12-03T09:22:52.708Z,78.03
2022-12-03T09:25:20.921Z,70.43
2022-12-03T09:27:49.817Z,69.00
2022-12-03T09:30:19.493Z,75.20
2022-12-03T09:32:47.567Z,68.93
2022-12-03T09:35:15.782Z,75.77
2022-12-03T09:37:43.875Z,71.73
2022-12-03T09:40:13.314Z,72.87
2022-12-03T09:42:41.380Z,80.23
2022-12-03T09:45:12.442Z,77.33
2022-12-03T09:47:42.520Z,80.63
2022-12-03T09:50:12.694Z,85.07
2022-12-03T09:52:40.776Z,80.77
2022-12-03T09:55:13.130Z,72.70
2022-12-03T09:57:41.189Z,73.00
2022-12-03T10:00:16.724Z,71.40
2022-12-03T10:02:46.397Z,68.97
2022-12-03T10:05:14.758Z,67.63
2022-12-03T10:07:43.005Z,67.60
2022-12-03T10:10:16.572Z,63.43
2022-12-03T10:12:44.665Z,73.40
2022-12-03T10:15:13.978Z,75.40
2022-12-03T10:17:42.136Z,75.10
2022-12-03T10:20:14.658Z,73.27
2022-12-03T10:22:42.722Z,80.33
2022-12-03T10:25:12.568Z,79.60
2022-12-03T10:27:40.653Z,75.13
2022-12-03T10:30:17.203Z,75.23
2022-12-03T10:32:45.933Z,64.73
2022-12-03T10:35:16.403Z,71.30
2022-12-03T10:38:01.231Z,72.23
2022-12-03T10:40:29.941Z,75.07
2022-12-03T10:43:16.503Z,76.00
2022-12-03T10:45:44.742Z,75.30
2022-12-03T10:48:14.172Z,75.33
2022-12-03T10:50:51.051Z,73.90
2022-12-03T10:53:19.533Z,75.23
2022-12-03T10:55:47.868Z,68.47
2022-12-03T10:58:20.247Z,75.97
2022-12-03T11:00:48.459Z,75.87
2022-12-03T11:03:21.353Z,75.93
2022-12-03T11:05:51.117Z,72.13
2022-12-03T11:08:20.012Z,72.33
2022-12-03T11:10:56.376Z,73.00
2022-12-03T11:13:50.105Z,73.93
2022-12-03T11:17:12.145Z,70.70
2022-12-03T11:19:47.507Z,75.47
2022-12-03T11:22:38.926Z,69.50
2022-12-03T11:25:50.582Z,73.20
2022-12-03T11:28:47.411Z,69.33
2022-12-03T11:31:40.727Z,81.67
2022-12-03T11:34:47.884Z,68.87
2022-12-03T11:37:29.566Z,66.73
2022-12-03T11:40:16.452Z,77.50
2022-12-03T11:42:44.939Z,76.60
2022-12-03T11:45:17.733Z,73.50
2022-12-03T11:47:47.010Z,79.57
2022-12-03T11:50:21.737Z,78.87
2022-12-03T11:52:53.741Z,86.13
2022-12-03T11:55:28.260Z,82.23
2022-12-03T11:57:58.492Z,77.97
2022-12-03T12:00:26.914Z,86.70
2022-12-03T12:02:56.002Z,81.27
2022-12-03T12:05:29.206Z,76.67
2022-12-03T12:07:58.724Z,78.33
2022-12-03T12:10:53.936Z,78.57
2022-12-03T12:13:52.616Z,89.73
2022-12-03T12:16:51.333Z,81.70
2022-12-03T12:19:32.336Z,82.20
2022-12-03T12:22:17.892Z,92.17
2022-12-03T12:24:51.476Z,75.57
2022-12-03T12:27:21.375Z,80.77
2022-12-03T12:29:54.699Z,81.40
2022-12-03T12:32:25.368Z,82.67
2022-12-03T12:34:56.023Z,83.63
2022-12-03T12:37:27.482Z,83.00
2022-12-03T12:39:57.801Z,85.43
2022-12-03T12:42:34.170Z,76.93
2022-12-03T12:45:06.947Z,83.30
2022-12-03T12:47:35.740Z,86.10
2022-12-03T12:50:06.659Z,84.30
2022-12-03T12:52:34.696Z,79.93
2022-12-03T12:55:07.095Z,78.03
2022-12-03T12:57:35.125Z,85.83
2022-12-03T13:00:03.646Z,87.57
2022-12-03T13:02:42.065Z,93.90
2022-12-03T13:05:14.248Z,91.30
2022-12-03T13:07:43.719Z,93.00
2022-12-03T13:10:29.594Z,87.23
2022-12-03T13:12:57.790Z,86.07
2022-12-03T13:15:37.075Z,87.50
2022-12-03T13:18:12.031Z,90.93
2022-12-03T13:20:40.158Z,89.50
2022-12-03T13:23:15.627Z,83.03
2022-12-03T13:26:06.664Z,92.17
2022-12-03T13:28:33.888Z,99.83
2022-12-03T13:31:08.383Z,100.00
2022-12-03T13:33:36.500Z,93.17
2022-12-03T13:36:07.112Z,93.27
2022-12-03T13:38:35.181Z,88.53
2022-12-03T13:41:04.980Z,93.63
2022-12-03T13:43:32.608Z,82.13
2022-12-03T13:46:01.379Z,89.33
2022-12-03T13:48:31.213Z,79.77
2022-12-03T13:51:01.067Z,78.20
2022-12-03T13:53:30.333Z,90.47
2022-12-03T13:55:59.399Z,84.83
2022-12-03T13:58:28.817Z,89.47
2022-12-03T14:00:57.226Z,84.17
2022-12-03T14:03:25.325Z,88.87
2022-12-03T14:05:53.490Z,83.10
2022-12-03T14:08:22.058Z,77.77
2022-12-03T14:10:54.230Z,76.53
2022-12-03T14:13:25.145Z,67.43
2022-12-03T14:15:54.655Z,77.63
2022-12-03T14:18:22.698Z,70.20
2022-12-03T14:20:51.005Z,73.23
2022-12-03T14:23:19.189Z,74.53
2022-12-03T14:25:47.337Z,78.00
2022-12-03T14:28:15.455Z,75.07
2022-12-03T14:30:43.651Z,81.37
2022-12-03T14:33:13.270Z,82.07
2022-12-03T14:35:41.451Z,82.07
2022-12-03T14:38:09.508Z,80.47
2022-12-03T14:40:37.669Z,79.10
2022-12-03T14:43:05.756Z,88.53
2022-12-03T14:45:34.053Z,88.43
2022-12-03T14:48:02.256Z,79.13
2022-12-03T14:50:31.707Z,90.80
2022-12-03T14:52:59.811Z,94.27
2022-12-03T14:55:28.042Z,116.63
2022-12-03T14:57:56.211Z,119.20
2022-12-03T15:00:24.682Z,104.50
2022-12-03T15:02:52.936Z,96.87
2022-12-03T15:05:27.992Z,135.20
2022-12-03T15:07:58.426Z,114.23
2022-12-03T15:10:26.632Z,118.37
2022-12-03T15:12:54.784Z,111.93
2022-12-03T15:15:22.939Z,107.27
2022-12-03T15:17:51.003Z,92.30
2022-12-03T15:20:19.230Z,98.33
2022-12-03T15:22:47.497Z,98.47
2022-12-03T15:25:24.221Z,88.90
2022-12-03T15:27:52.529Z,94.87
2022-12-03T15:30:21.478Z,81.27
2022-12-03T15:32:49.551Z,87.77
2022-12-03T15:35:18.818Z,85.27
2022-12-03T15:37:46.869Z,89.97
2022-12-03T15:40:16.466Z,85.40
2022-12-03T15:42:44.544Z,80.23
2022-12-03T15:45:15.364Z,82.27
2022-12-03T15:47:43.733Z,83.43
2022-12-03T15:50:12.794Z,91.50
2022-12-03T15:52:40.923Z,84.97
2022-12-03T15:55:10.321Z,80.40
2022-12-03T15:57:39.789Z,86.60
2022-12-03T16:00:09.362Z,92.97
2022-12-03T16:02:37.531Z,91.27
2022-12-03T16:05:06.854Z,93.30
2022-12-03T16:07:34.933Z,84.50
2022-12-03T16:10:03.275Z,94.60
2022-12-03T16:12:31.373Z,99.30
2022-12-03T16:15:00.888Z,99.53
2022-12-03T16:17:28.981Z,93.83
2022-12-03T16:19:57.209Z,93.17
2022-12-03T16:22:25.387Z,91.43
2022-12-03T16:24:53.646Z,88.33
2022-12-03T16:27:25.466Z,78.27
2022-12-03T16:29:56.360Z,74.07
2022-12-03T16:32:26.155Z,69.43
2022-12-03T16:34:54.290Z,78.80
2022-12-03T16:37:22.375Z,75.07
2022-12-03T16:39:51.049Z,70.57
2022-12-03T16:42:19.095Z,74.07
2022-12-03T16:45:17.343Z,75.27
2022-12-03T16:47:46.863Z,79.23
2022-12-03T16:50:21.864Z,72.07
2022-12-03T16:52:55.916Z,74.70
2022-12-03T16:55:24.288Z,72.37
2022-12-03T16:57:52.683Z,76.17
2022-12-03T17:00:22.012Z,67.43
2022-12-03T17:02:51.538Z,74.23
2022-12-03T17:05:19.748Z,68.13
2022-12-03T17:07:47.842Z,74.67
2022-12-03T17:10:16.174Z,69.17
2022-12-03T17:13:08.181Z,68.37
2022-12-03T17:15:32.443Z,69.17
2022-12-03T17:18:03.742Z,76.53
2022-12-03T17:20:31.813Z,68.30
2022-12-03T17:22:59.994Z,81.57
2022-12-03T17:25:28.241Z,73.83
2022-12-03T17:27:56.333Z,75.10
2022-12-03T17:30:24.523Z,72.27
2022-12-03T17:32:52.584Z,70.07
2022-12-03T17:35:22.115Z,71.57
2022-12-03T17:37:50.178Z,76.67
2022-12-03T17:40:18.387Z,68.77
2022-12-03T17:42:46.472Z,66.63
2022-12-03T17:45:14.677Z,74.17
2022-12-03T17:47:42.771Z,69.13
2022-12-03T17:50:11.828Z,70.47
2022-12-03T17:52:41.238Z,76.47
2022-12-03T17:55:13.920Z,73.70
2022-12-03T17:57:44.283Z,70.10
2022-12-03T18:00:13.425Z,78.00
2022-12-03T18:02:41.505Z,74.27
2022-12-03T18:05:10.303Z,72.93
2022-12-03T18:07:38.384Z,76.93
2022-12-03T18:10:09.187Z,67.90
2022-12-03T18:12:37.346Z,72.33
2022-12-03T18:15:06.352Z,73.77
2022-12-03T18:17:34.403Z,76.97
2022-12-03T18:20:02.545Z,69.97
2022-12-03T18:22:30.609Z,71.83
2022-12-03T18:24:58.791Z,73.47
2022-12-03T18:27:28.204Z,77.97
2022-12-03T18:29:56.735Z,67.90
2022-12-03T18:32:29.232Z,69.90
2022-12-03T18:34:57.784Z,69.87
2022-12-03T18:37:26.673Z,67.67
2022-12-03T18:39:55.200Z,70.43
2022-12-03T18:42:23.841Z,63.90
2022-12-03T18:44:54.395Z,68.60
2022-12-03T18:47:23.517Z,68.63
2022-12-03T18:49:51.951Z,67.93
2022-12-03T18:52:21.581Z,70.40
2022-12-03T18:54:49.778Z,71.17
2022-12-03T18:57:17.982Z,66.00
2022-12-03T18:59:46.141Z,75.47
2022-12-03T19:02:32.473Z,69.43
2022-12-03T19:05:06.162Z,72.43
2022-12-03T19:07:34.308Z,71.03
2022-12-03T19:10:02.629Z,70.00
2022-12-03T19:12:31.232Z,76.23
2022-12-03T19:14:59.397Z,74.10
2022-12-03T19:17:28.844Z,72.57
2022-12-03T19:19:57.440Z,68.37
2022-12-03T19:22:25.661Z,70.30
2022-12-03T19:24:53.847Z,68.53
2022-12-03T19:27:21.904Z,71.03
2022-12-03T19:29:50.000Z,74.03
2022-12-03T19:32:18.173Z,71.07
2022-12-03T19:34:47.629Z,75.67
2022-12-03T19:37:15.716Z,68.17
2022-12-03T19:39:43.945Z,72.47
2022-12-03T19:42:12.077Z,69.60
2022-12-03T19:44:40.295Z,69.57
2022-12-03T19:47:08.417Z,74.10
2022-12-03T19:49:36.474Z,69.30
2022-12-03T19:52:06.189Z,66.97
2022-12-03T19:54:34.296Z,75.03
2022-12-03T19:57:02.628Z,73.83
2022-12-03T19:59:30.864Z,74.43
2022-12-03T20:01:59.167Z,72.63
2022-12-03T20:04:27.456Z,73.97
2022-12-03T20:06:55.761Z,70.67
2022-12-03T20:09:25.324Z,81.53
2022-12-03T20:11:53.956Z,73.50
2022-12-03T20:14:22.071Z,72.83
2022-12-03T20:16:50.803Z,79.90
2022-12-03T20:19:19.018Z,81.27
2022-12-03T20:21:47.169Z,77.50
2022-12-03T20:24:16.234Z,82.60
2022-12-03T20:26:45.760Z,79.07
2022-12-03T20:29:13.821Z,81.93
2022-12-03T20:31:42.061Z,80.10
2022-12-03T20:34:11.649Z,85.10
2022-12-03T20:36:40.092Z,85.17
2022-12-03T20:39:08.416Z,81.57
2022-12-03T20:41:36.968Z,89.07
2022-12-03T20:44:07.964Z,84.50
2022-12-03T20:46:36.227Z,87.17
2022-12-03T20:49:04.452Z,88.33
2022-12-03T20:51:32.948Z,91.40
2022-12-03T20:54:01.248Z,93.87
2022-12-03T20:56:31.277Z,90.73
2022-12-03T20:59:00.990Z,91.17
2022-12-03T21:01:30.523Z,90.67
2022-12-03T21:03:58.703Z,84.47
2022-12-03T21:06:27.909Z,92.13
2022-12-03T21:08:56.138Z,91.77
2022-12-03T21:11:25.252Z,94.23
2022-12-03T21:13:53.502Z,92.77
2022-12-03T21:16:45.522Z,78.10
2022-12-03T21:19:12.637Z,84.10
2022-12-03T21:21:40.807Z,85.37
2022-12-03T21:24:09.434Z,86.33
2022-12-03T21:26:37.622Z,82.53
2022-12-03T21:29:05.712Z,83.37
2022-12-03T21:31:35.468Z,83.63
2022-12-03T21:34:05.104Z,80.67
2022-12-03T21:36:34.621Z,84.53
2022-12-03T21:39:02.726Z,81.17
2022-12-03T21:41:30.977Z,80.17
2022-12-03T21:43:59.063Z,86.60
2022-12-03T21:47:12.968Z,79.63
2022-12-03T21:49:16.239Z,82.23
2022-12-03T21:51:46.181Z,77.30
2022-12-03T21:54:14.365Z,78.83
2022-12-03T21:56:42.538Z,89.47
2022-12-03T21:59:10.579Z,80.60
2022-12-03T22:01:41.692Z,77.23
2022-12-03T22:04:13.708Z,83.73
2022-12-03T22:06:41.893Z,79.57
2022-12-03T22:09:11.350Z,79.30
2022-12-03T22:11:39.391Z,73.03
2022-12-03T22:14:08.574Z,80.50
2022-12-03T22:16:36.794Z,71.40
2022-12-03T22:19:04.986Z,70.73
2022-12-03T22:21:33.068Z,71.07
2022-12-03T22:24:01.246Z,75.97
2022-12-03T22:26:30.986Z,75.77
2022-12-03T22:28:59.017Z,79.90
2022-12-03T22:31:27.131Z,81.97
2022-12-03T22:33:55.256Z,85.37
2022-12-03T22:36:23.349Z,75.87
2022-12-03T22:38:51.501Z,88.87
2022-12-03T22:41:19.650Z,85.83
2022-12-03T22:43:49.108Z,77.23
2022-12-03T22:46:17.418Z,80.20
2022-12-03T22:48:47.251Z,79.77
2022-12-03T22:51:16.152Z,85.27
2022-12-03T22:53:44.218Z,77.07
2022-12-03T22:56:12.398Z,81.53
2022-12-03T22:58:40.625Z,73.27
2022-12-03T23:01:10.205Z,78.40
2022-12-03T23:03:38.345Z,79.10
2022-12-03T23:06:11.520Z,73.47
2022-12-03T23:08:39.601Z,72.10
2022-12-03T23:11:07.870Z,79.23
2022-12-03T23:13:36.401Z,75.63
2022-12-03T23:16:04.637Z,69.73
2022-12-03T23:18:34.082Z,79.33
2022-12-03T23:21:02.217Z,72.90
2022-12-03T23:23:30.246Z,69.63
2022-12-03T23:25:58.926Z,75.03
2022-12-03T23:28:27.120Z,75.00
2022-12-03T23:30:55.360Z,75.53
2022-12-03T23:33:23.500Z,77.67
2022-12-03T23:35:53.030Z,66.17
2022-12-03T23:38:21.322Z,68.53
2022-12-03T23:40:49.510Z,71.73
2022-12-03T23:43:17.647Z,68.23
2022-12-03T23:45:45.780Z,70.33
2022-12-03T23:48:13.865Z,72.63
2022-12-03T23:50:42.404Z,69.13
2022-12-03T23:53:12.279Z,67.53
2022-12-03T23:55:40.930Z,66.63
2022-12-03T23:58:09.177Z,67.13
